大阪/関西 の空港の天気 - METARとTAF

関西国際空港 ( RJBB / KIX ) - 大阪府泉佐野市
飛行場実況気象(Metar)
観測時間04/30 23:30 JST (04/30 14:30 UTC)
風向・風速南 4m/s
視程10km以上
天気現象
なし
気温17℃
湿度68%
気圧1012hPa
METARRJBB 301430Z AUTO 19008KT 9999 NCD 17/11 Q1012 NOSIG
過去の天気等 Google飛行場航空写真 Wunderground天気予報

過去48時間のMETAR

飛行場予報(TAF)
発表時間: 4/30 20:05 JST (4/30 11:05 UTC)
予報対象時間: 30日21時 JST ~ 2日3時 JST
風向・風速南 5m/s
視程10km以上
なし
1日15時 JST ~ 1日18時 JST に徐々に
風向・風速北東 8m/s
1日15時 JST ~ 1日18時 JST に一時的に
天気現象
少しの雲 雲底高度 610m
少しの積乱雲 雲底高度 760m
全天の4割程度の雲 雲底高度 910m
全天の8割程度の雲 雲底高度 1,220m
TAF RJBB 301105Z 3012/0118 19010KT CAVOK
BECMG 0106/0109 04015KT
TEMPO 0106/0109 TS FEW020 FEW025CB SCT030 BKN040
日本の空港のMETAR・TAFへのリンク

RJTT 東京国際空港
RJAA 新東京国際空港
RJBB 関西国際空港
RJOO 大阪空港
RJGG 中部国際空港
RJCC 新千歳空港
RJFF 福岡空港
ROAH 那覇空港


RJEC 旭川空港
RJCH 函館空港
RJCK 釧路空港
RJCM 女満別空港
RJCB 帯広空港
RJSA 青森空港
RJSS 仙台空港
RJSK 秋田空港
RJSF 福島空港
RJAH 茨城空港
RJSN 新潟空港
RJNT 富山空港
RJNK 小松飛行場
RJNS 静岡空港
RJOH 美保飛行場
RJOC 出雲空港
RJOB 岡山空港
RJOA 広島空港
RJOI 岩国飛行場
RJOT 高松空港
RJOM 松山空港
RJOK 高知空港
RJFR 北九州空港
RJFT 熊本空港
RJFU 長崎空港
RJFS 佐賀空港
RJFO 大分空港
RJFM 宮崎空港
RJFK 鹿児島空港
ROIG 石垣島空港
RJTY 横田飛行場
ROTM 普天間飛行場
RODN 嘉手納飛行場